Time;durP1;ratioP1;P1;durP2;ratioP2;P2;SDS_P1;SDS_P2;PMS_P1;PMS_P2;Temp;Humidity;BMP_temperature;BMP_pressure;BME280_temperature;BME280_humidity;BME280_pressure;Samples;Min_cycle;Max_cycle;Signal;HPM_P1;HPM_P2
2022/09/24 00:01:39;;;;;;;6.43;2.92;;;;;;;6.52;80.21;100135.59;4496092;31;34493;-76
2022/09/24 00:04:13;;;;;;;5.25;2.42;;;;;;;6.59;79.79;100145.50;4487722;31;33748;-76
2022/09/24 00:06:43;;;;;;;5.80;2.60;;;;;;;6.56;79.86;100129.84;4493237;31;33478;-76
2022/09/24 00:09:12;;;;;;;5.25;2.50;;;;;;;6.68;79.45;100138.38;4488828;31;33664;-75
2022/09/24 00:11:41;;;;;;;5.53;3.10;;;;;;;6.48;80.24;100145.66;4494011;31;33948;-76
2022/09/24 00:14:09;;;;;;;5.07;2.50;;;;;;;6.59;79.85;100133.53;4484905;32;33702;-76
2022/09/24 00:16:38;;;;;;;5.47;2.75;;;;;;;6.46;80.37;100134.38;4491327;31;33871;-76
2022/09/24 00:19:06;;;;;;;4.43;2.50;;;;;;;6.46;80.28;100136.94;4494763;31;33580;-76
2022/09/24 00:21:34;;;;;;;5.37;2.58;;;;;;;6.52;79.96;100135.59;4493515;31;33831;-76
2022/09/24 00:24:08;;;;;;;5.10;2.47;;;;;;;6.43;80.09;100141.91;4485430;31;33968;-76
2022/09/24 00:26:50;;;;;;;5.00;2.70;;;;;;;6.38;80.74;100139.81;4484755;31;33823;-76
2022/09/24 00:29:22;;;;;;;7.32;2.67;;;;;;;6.45;80.25;100140.34;4490367;31;33676;-76
2022/09/24 00:31:52;;;;;;;6.60;2.78;;;;;;;6.40;80.36;100140.81;4488694;31;33413;-76
2022/09/24 00:34:20;;;;;;;4.60;2.45;;;;;;;6.39;80.29;100145.03;4488896;31;33492;-76
2022/09/24 00:36:47;;;;;;;5.80;2.75;;;;;;;6.46;80.04;100139.53;4487434;31;34513;-76
2022/09/24 00:39:15;;;;;;;5.32;2.55;;;;;;;6.59;79.32;100137.78;4484917;32;33591;-76
2022/09/24 00:41:47;;;;;;;7.75;2.95;;;;;;;6.74;78.68;100137.88;4490633;31;33912;-76
2022/09/24 00:44:40;;;;;;;5.12;2.80;;;;;;;6.50;79.71;100133.78;4473990;31;33873;-75
2022/09/24 00:47:22;;;;;;;4.47;2.58;;;;;;;6.52;79.80;100125.28;4475009;32;34685;-76
2022/09/24 00:49:50;;;;;;;5.18;2.72;;;;;;;6.66;78.83;100129.66;4491835;31;33329;-76
2022/09/24 00:52:18;;;;;;;6.07;2.62;;;;;;;6.58;79.03;100125.69;4490151;31;34622;-76
2022/09/24 00:54:46;;;;;;;4.72;2.50;;;;;;;6.56;79.29;100119.56;4485185;31;33801;-76
2022/09/24 00:57:13;;;;;;;6.75;2.83;;;;;;;6.46;79.93;100126.66;4470532;32;33840;-76
2022/09/24 00:59:41;;;;;;;6.70;2.70;;;;;;;6.61;79.14;100125.91;4486395;31;34155;-76
2022/09/24 01:02:09;;;;;;;5.35;2.45;;;;;;;6.39;80.02;100119.31;4492589;31;34567;-76
2022/09/24 01:04:36;;;;;;;6.65;2.90;;;;;;;6.53;79.65;100109.97;4489228;31;34124;-76
2022/09/24 01:07:04;;;;;;;5.25;2.58;;;;;;;6.45;79.87;100111.13;4490360;31;34441;-76
2022/09/24 01:09:31;;;;;;;5.82;2.67;;;;;;;6.36;80.06;100113.97;4490588;31;33041;-76
2022/09/24 01:12:05;;;;;;;6.15;2.65;;;;;;;6.25;80.96;100115.81;4482622;31;33747;-76
2022/09/24 01:14:51;;;;;;;3.95;2.03;;;;;;;6.32;80.38;100111.09;4478755;31;34065;-76
2022/09/24 01:17:41;;;;;;;4.55;2.65;;;;;;;6.24;80.48;100108.03;4484532;31;34521;-76
2022/09/24 01:20:08;;;;;;;5.15;2.70;;;;;;;6.56;79.10;100104.09;4490284;31;32396;-76
2022/09/24 01:23:02;;;;;;;5.10;2.42;;;;;;;6.56;78.65;100101.53;4484778;31;33870;-76
2022/09/24 01:25:35;;;;;;;5.25;2.12;;;;;;;6.41;79.31;100102.31;4484695;31;33776;-76
2022/09/24 01:28:26;;;;;;;5.45;2.28;;;;;;;6.40;79.44;100097.06;4489912;31;33666;-76
2022/09/24 01:31:08;;;;;;;5.10;2.65;;;;;;;6.14;80.46;100100.47;4478854;31;33087;-76
2022/09/24 01:33:35;;;;;;;6.35;2.95;;;;;;;6.29;79.83;100106.62;4476472;31;33522;-76
2022/09/24 01:36:07;;;;;;;6.25;2.70;;;;;;;6.36;79.80;100098.53;4490102;31;34012;-76
2022/09/24 01:38:43;;;;;;;5.32;2.45;;;;;;;6.26;80.32;100096.16;4472831;32;33908;-76
2022/09/24 01:41:11;;;;;;;5.82;2.85;;;;;;;6.32;80.12;100099.13;4482351;31;33986;-76
2022/09/24 01:43:39;;;;;;;5.60;2.50;;;;;;;6.40;79.55;100085.09;4485070;31;34678;-75
2022/09/24 01:46:07;;;;;;;6.18;2.17;;;;;;;6.36;79.40;100083.09;4489194;31;33848;-76
2022/09/24 01:48:36;;;;;;;7.00;3.25;;;;;;;6.53;78.54;100085.88;4484950;31;33830;-76
2022/09/24 01:51:22;;;;;;;5.93;2.67;;;;;;;6.31;79.31;100084.47;4470058;32;33297;-76
2022/09/24 01:53:55;;;;;;;7.78;3.15;;;;;;;6.41;79.16;100080.81;4472543;31;34544;-76
2022/09/24 01:56:45;;;;;;;6.20;2.80;;;;;;;6.45;79.07;100082.81;4484086;31;33541;-76
2022/09/24 01:59:31;;;;;;;8.98;2.97;;;;;;;6.37;79.12;100087.44;4484884;31;34384;-76
2022/09/24 02:02:13;;;;;;;5.93;3.00;;;;;;;6.26;79.74;100091.03;4485230;31;34165;-76
2022/09/24 02:04:45;;;;;;;7.00;3.30;;;;;;;6.24;79.85;100097.75;4475253;32;33849;-76
2022/09/24 02:07:40;;;;;;;7.60;3.40;;;;;;;6.08;80.53;100091.56;4471296;32;34408;-76
2022/09/24 02:10:19;;;;;;;8.20;3.20;;;;;;;6.13;80.24;100094.44;4496786;31;34183;-75
2022/09/24 02:12:52;;;;;;;9.15;3.15;;;;;;;6.46;78.94;100092.31;4487219;31;33587;-76
2022/09/24 02:15:36;;;;;;;8.05;3.78;;;;;;;6.42;78.99;100091.22;4474173;32;34015;-75
2022/09/24 02:18:07;;;;;;;7.75;3.60;;;;;;;6.43;78.39;100090.44;4472799;32;33897;-76
2022/09/24 02:20:35;;;;;;;6.93;2.95;;;;;;;6.30;79.15;100090.44;4477715;31;33628;-76
2022/09/24 02:23:04;;;;;;;7.35;3.08;;;;;;;6.27;79.29;100097.94;4478766;32;33333;-76
2022/09/24 02:25:49;;;;;;;5.68;2.60;;;;;;;6.45;78.64;100088.88;4476562;31;33664;-76
2022/09/24 02:28:17;;;;;;;6.53;3.17;;;;;;;6.40;78.73;100092.81;4475444;31;34120;-76
2022/09/24 02:30:56;;;;;;;6.15;3.22;;;;;;;6.41;78.95;100091.13;4476962;31;33769;-76
2022/09/24 02:36:11;;;;;;;10.30;3.85;;;;;;;6.13;80.02;100098.69;4491825;31;33833;-76
2022/09/24 02:38:38;;;;;;;6.47;2.58;;;;;;;6.31;78.89;100105.06;4487030;31;33694;-75
2022/09/24 02:41:07;;;;;;;5.45;2.33;;;;;;;6.06;79.97;100105.97;4496774;31;33974;-76
2022/09/24 02:43:35;;;;;;;4.37;2.25;;;;;;;6.37;79.41;100095.16;4494402;31;33930;-76
2022/09/24 02:46:02;;;;;;;4.28;2.35;;;;;;;6.35;78.74;100083.88;4486008;31;34763;-76
2022/09/24 02:48:30;;;;;;;4.32;2.12;;;;;;;6.63;77.94;100088.28;4496850;31;34466;-76
2022/09/24 02:50:57;;;;;;;5.87;2.55;;;;;;;6.50;77.93;100087.47;4491198;31;33448;-76
2022/09/24 02:53:25;;;;;;;5.07;2.65;;;;;;;6.10;78.91;100095.13;4493138;31;33014;-76
2022/09/24 02:55:52;;;;;;;6.72;2.65;;;;;;;5.80;80.84;100093.03;4490560;31;34501;-76
2022/09/24 02:58:20;;;;;;;5.57;2.30;;;;;;;6.02;80.43;100096.28;4498545;31;34677;-76
2022/09/24 03:00:47;;;;;;;8.07;2.40;;;;;;;6.07;79.92;100100.06;4491449;31;34248;-76
2022/09/24 03:03:15;;;;;;;5.22;2.58;;;;;;;6.40;78.59;100085.09;4491595;31;33519;-76
2022/09/24 03:05:43;;;;;;;5.15;2.40;;;;;;;6.36;78.33;100090.81;4487857;31;34714;-76
2022/09/24 03:08:10;;;;;;;5.53;2.50;;;;;;;5.94;80.31;100092.28;4488474;31;33770;-76
2022/09/24 03:10:38;;;;;;;5.68;2.60;;;;;;;5.88;81.06;100089.28;4493068;31;33565;-76
2022/09/24 03:13:05;;;;;;;5.40;2.62;;;;;;;6.07;80.08;100089.78;4493899;31;33929;-76
2022/09/24 03:15:33;;;;;;;5.80;2.83;;;;;;;6.14;79.34;100079.91;4489510;31;34607;-76
2022/09/24 03:18:00;;;;;;;7.93;3.05;;;;;;;5.99;80.30;100083.22;4497885;31;33968;-76
2022/09/24 03:20:28;;;;;;;5.75;2.90;;;;;;;6.12;80.08;100071.19;4492487;31;34085;-76
2022/09/24 03:22:56;;;;;;;4.90;2.28;;;;;;;6.26;78.68;100067.87;4487685;31;33404;-76
2022/09/24 03:25:24;;;;;;;5.43;2.53;;;;;;;6.21;79.46;100069.22;4489811;31;33592;-76
2022/09/24 03:27:51;;;;;;;5.82;2.60;;;;;;;5.80;80.49;100070.78;4497507;31;34380;-76
2022/09/24 03:33:05;;;;;;;6.70;2.75;;;;;;;5.42;82.85;100068.16;4480997;31;33589;-76
2022/09/24 03:35:33;;;;;;;6.60;3.15;;;;;;;5.92;81.01;100065.56;4481114;31;33954;-75
2022/09/24 03:38:01;;;;;;;5.78;2.95;;;;;;;6.23;79.39;100065.06;4496505;31;33465;-75
2022/09/24 03:40:29;;;;;;;6.03;2.50;;;;;;;6.21;79.06;100070.13;4486689;31;33742;-76
2022/09/24 03:42:56;;;;;;;5.20;2.60;;;;;;;5.94;79.86;100069.12;4489284;31;33062;-76
2022/09/24 03:45:24;;;;;;;7.50;2.97;;;;;;;6.32;78.68;100064.78;4493855;31;33927;-75
2022/09/24 03:47:52;;;;;;;6.03;2.80;;;;;;;6.55;77.57;100063.72;4497476;31;34551;-76
2022/09/24 03:50:19;;;;;;;5.32;2.70;;;;;;;7.23;74.79;100054.31;4475894;31;34129;-76
2022/09/24 03:52:47;;;;;;;5.53;2.37;;;;;;;7.42;73.90;100052.91;4478141;31;33760;-76
2022/09/24 03:55:14;;;;;;;4.28;2.20;;;;;;;7.05;74.84;100050.59;4479962;31;34508;-76
2022/09/24 03:57:42;;;;;;;6.37;2.47;;;;;;;6.86;75.27;100051.16;4497587;31;33807;-75
2022/09/24 04:00:10;;;;;;;5.90;2.53;;;;;;;6.82;75.37;100052.62;4483277;31;34028;-75
2022/09/24 04:02:39;;;;;;;8.68;2.75;;;;;;;6.47;77.23;100056.41;4495336;31;34015;-76
2022/09/24 04:05:07;;;;;;;10.02;3.05;;;;;;;6.48;77.34;100057.28;4477208;32;33261;-76
2022/09/24 04:07:34;;;;;;;6.22;2.92;;;;;;;7.02;75.14;100048.72;4488829;31;33990;-76
2022/09/24 04:10:02;;;;;;;7.12;3.28;;;;;;;7.29;73.86;100048.66;4494046;31;34621;-76
2022/09/24 04:12:30;;;;;;;7.55;3.08;;;;;;;7.12;74.11;100055.34;4488699;31;34199;-76
2022/09/24 04:14:57;;;;;;;5.93;2.90;;;;;;;6.95;74.68;100050.81;4487284;31;33718;-76
2022/09/24 04:17:30;;;;;;;7.20;3.28;;;;;;;7.40;73.00;100049.34;4491568;31;33949;-76
2022/09/24 04:19:57;;;;;;;6.10;3.05;;;;;;;7.39;73.23;100050.13;4484742;31;33985;-76
2022/09/24 04:22:26;;;;;;;5.75;2.92;;;;;;;7.21;73.55;100055.91;4482105;31;34517;-76
2022/09/24 04:24:57;;;;;;;6.32;3.20;;;;;;;6.88;74.93;100055.59;4489928;31;33862;-76
2022/09/24 04:27:24;;;;;;;6.25;2.97;;;;;;;6.75;75.22;100058.16;4489415;31;33956;-76
2022/09/24 04:29:53;;;;;;;9.57;4.43;;;;;;;7.40;72.65;100057.94;4486105;31;33883;-76
2022/09/24 04:32:20;;;;;;;7.93;4.18;;;;;;;6.87;73.83;100051.22;4490976;31;34207;-76
2022/09/24 04:34:48;;;;;;;12.00;4.82;;;;;;;6.77;73.72;100046.28;4493454;31;33913;-76
2022/09/24 04:37:15;;;;;;;8.82;4.50;;;;;;;6.73;73.95;100062.34;4489696;31;35308;-76
2022/09/24 04:39:43;;;;;;;7.85;4.65;;;;;;;6.55;75.03;100063.72;4488992;31;34768;-76
2022/09/24 04:42:15;;;;;;;7.93;4.18;;;;;;;6.81;74.33;100053.41;4494547;31;33416;-76
2022/09/24 04:44:46;;;;;;;7.82;3.97;;;;;;;7.59;71.16;100043.59;4485553;31;33801;-76
2022/09/24 04:47:14;;;;;;;9.80;4.35;;;;;;;7.47;71.97;100054.03;4494433;31;33987;-76
2022/09/24 04:49:43;;;;;;;10.25;4.40;;;;;;;7.11;73.45;100057.81;4490116;31;33987;-76
2022/09/24 04:52:13;;;;;;;8.20;4.45;;;;;;;7.45;72.50;100060.78;4488234;31;33502;-79
2022/09/24 04:54:45;;;;;;;8.85;4.25;;;;;;;8.01;69.34;100063.31;4486773;31;32897;-79
2022/09/24 04:57:13;;;;;;;12.02;4.78;;;;;;;7.96;69.53;100062.16;4491368;31;34025;-79
2022/09/24 04:59:42;;;;;;;15.18;6.22;;;;;;;7.49;71.23;100062.75;4491865;31;34540;-79
2022/09/24 05:02:09;;;;;;;14.38;5.53;;;;;;;6.80;74.36;100066.16;4491494;31;34137;-79
2022/09/24 05:04:37;;;;;;;12.48;6.70;;;;;;;6.98;74.57;100056.19;4486550;31;34534;-79
2022/09/24 05:07:04;;;;;;;9.00;4.50;;;;;;;7.71;71.94;100054.66;4488185;31;34622;-78
2022/09/24 05:09:32;;;;;;;8.80;4.72;;;;;;;7.97;71.08;100045.88;4487092;31;32556;-79
2022/09/24 05:12:00;;;;;;;10.68;4.43;;;;;;;8.29;70.07;100039.12;4485814;31;33240;-78
2022/09/24 05:14:27;;;;;;;10.63;4.20;;;;;;;8.26;70.26;100045.00;4490586;31;34637;-79
2022/09/24 05:16:55;;;;;;;8.02;4.47;;;;;;;7.91;71.93;100042.94;4491182;31;33522;-78
2022/09/24 05:19:23;;;;;;;8.27;4.75;;;;;;;7.59;73.40;100039.34;4477481;31;33211;-78
2022/09/24 05:21:51;;;;;;;10.68;5.65;;;;;;;7.19;74.85;100044.63;4491550;31;33075;-78
2022/09/24 05:24:19;;;;;;;11.65;5.72;;;;;;;7.07;76.01;100051.59;4489448;31;33651;-79
2022/09/24 05:29:41;;;;;;;7.57;4.00;;;;;;;7.49;74.64;100044.72;4483016;31;34132;-78
2022/09/24 05:32:11;;;;;;;9.35;4.45;;;;;;;7.09;77.09;100050.00;4481034;31;33511;-79
2022/09/24 05:34:40;;;;;;;9.27;4.60;;;;;;;7.02;77.46;100037.53;4471948;31;35686;-78
2022/09/24 05:37:08;;;;;;;9.15;4.85;;;;;;;7.43;76.13;100044.34;4486509;31;34723;-78
2022/09/24 05:39:35;;;;;;;10.20;5.30;;;;;;;7.26;76.79;100046.81;4475139;32;33465;-78
2022/09/24 05:42:03;;;;;;;10.50;5.15;;;;;;;7.40;76.62;100041.59;4491409;31;33974;-78
2022/09/24 05:44:30;;;;;;;10.52;5.35;;;;;;;8.26;73.03;100041.53;4476524;31;32782;-78
2022/09/24 05:46:58;;;;;;;8.38;5.05;;;;;;;8.93;70.88;100043.59;4493455;31;34027;-78
2022/09/24 05:49:26;;;;;;;9.48;4.65;;;;;;;9.43;68.65;100038.56;4490874;31;32802;-78
2022/09/24 05:51:53;;;;;;;9.60;4.65;;;;;;;9.42;68.66;100043.66;4488002;31;33808;-78
2022/09/24 05:54:21;;;;;;;6.80;3.42;;;;;;;9.56;68.44;100045.28;4489625;31;33953;-78
2022/09/24 05:56:48;;;;;;;9.13;3.80;;;;;;;9.89;67.44;100042.69;4494842;31;34669;-78
2022/09/24 05:59:16;;;;;;;7.70;4.10;;;;;;;9.91;66.87;100043.63;4490278;31;33903;-78
2022/09/24 06:01:43;;;;;;;7.95;4.30;;;;;;;10.00;66.78;100041.50;4490434;31;33440;-78
2022/09/24 06:04:11;;;;;;;8.00;3.55;;;;;;;9.36;69.13;100066.59;4487883;31;33553;-78
2022/09/24 06:06:39;;;;;;;7.53;4.03;;;;;;;8.55;72.24;100065.56;4494642;31;33778;-78
2022/09/24 06:09:08;;;;;;;10.23;4.78;;;;;;;9.34;69.93;100055.28;4491731;31;33765;-78
2022/09/24 06:11:37;;;;;;;9.60;4.93;;;;;;;9.67;68.95;100056.19;4492482;31;32523;-78
2022/09/24 06:14:07;;;;;;;7.10;4.00;;;;;;;9.72;69.13;100051.28;4491636;31;34477;-79
2022/09/24 06:16:35;;;;;;;10.32;5.07;;;;;;;9.70;69.56;100058.06;4491555;31;32392;-78
2022/09/24 06:19:03;;;;;;;9.75;5.50;;;;;;;10.20;67.90;100057.19;4487506;31;34443;-78
2022/09/24 06:21:30;;;;;;;11.27;5.90;;;;;;;10.34;67.63;100056.19;4491418;31;35800;-78
2022/09/24 06:23:58;;;;;;;12.70;5.80;;;;;;;10.41;67.80;100058.28;4479430;31;33459;-78
2022/09/24 06:26:27;;;;;;;11.73;6.30;;;;;;;10.85;67.07;100056.03;4489315;31;34117;-78
2022/09/24 06:28:54;;;;;;;9.98;5.55;;;;;;;10.62;68.36;100058.44;4495011;31;33774;-78
2022/09/24 06:31:27;;;;;;;11.85;6.90;;;;;;;10.80;68.48;100058.44;4474629;31;33394;-78
2022/09/24 06:33:54;;;;;;;11.05;6.90;;;;;;;10.76;69.26;100060.81;4488886;31;33739;-78
2022/09/24 06:36:22;;;;;;;14.80;8.55;;;;;;;10.70;69.32;100064.00;4495972;31;33669;-78
2022/09/24 06:38:50;;;;;;;16.40;9.82;;;;;;;11.02;68.56;100069.81;4475509;31;33730;-79
2022/09/24 06:41:18;;;;;;;14.02;7.62;;;;;;;11.55;67.10;100066.22;4489252;31;33591;-78
2022/09/24 06:43:46;;;;;;;12.63;7.32;;;;;;;11.24;67.95;100070.81;4491245;31;34303;-78
2022/09/24 06:46:14;;;;;;;9.95;6.65;;;;;;;11.48;67.47;100056.38;4493448;31;33652;-78
2022/09/24 06:48:41;;;;;;;10.32;6.62;;;;;;;11.48;67.98;100053.78;4492839;31;34236;-78
2022/09/24 06:51:09;;;;;;;10.88;6.25;;;;;;;11.20;69.42;100054.22;4490973;31;33986;-78
2022/09/24 06:53:37;;;;;;;11.27;6.40;;;;;;;11.94;67.44;100061.03;4481038;32;33573;-78
2022/09/24 06:56:04;;;;;;;10.55;6.62;;;;;;;11.95;67.70;100059.31;4492843;31;33632;-79
2022/09/24 06:58:32;;;;;;;13.25;7.53;;;;;;;11.64;69.23;100057.94;4487364;31;33612;-78
2022/09/24 07:01:01;;;;;;;10.15;7.03;;;;;;;11.92;68.41;100054.03;4488692;31;33429;-78
2022/09/24 07:03:31;;;;;;;10.60;7.07;;;;;;;12.14;68.26;100055.81;4490695;31;34053;-78
2022/09/24 07:06:00;;;;;;;11.38;6.65;;;;;;;12.31;67.76;100057.41;4490287;31;33626;-78
2022/09/24 07:08:28;;;;;;;13.00;7.97;;;;;;;12.76;66.81;100070.50;4483782;31;34780;-78
2022/09/24 07:10:55;;;;;;;14.60;8.40;;;;;;;12.38;67.89;100075.03;4489699;31;34225;-78
2022/09/24 07:13:22;;;;;;;19.48;7.97;;;;;;;12.29;68.50;100073.75;4488304;31;34077;-76
2022/09/24 07:15:51;;;;;;;15.00;9.00;;;;;;;12.41;67.92;100071.66;4486625;31;33574;-75
2022/09/24 07:18:19;;;;;;;13.18;8.25;;;;;;;12.88;66.65;100084.81;4482979;31;34488;-76
2022/09/24 07:20:54;;;;;;;15.10;9.73;;;;;;;13.29;65.87;100083.84;4495527;31;33048;-76
2022/09/24 07:23:22;;;;;;;16.77;10.07;;;;;;;13.06;67.82;100085.56;4476285;31;33448;-76
2022/09/24 07:25:54;;;;;;;15.82;10.20;;;;;;;13.60;65.66;100079.84;4493911;31;33898;-76
2022/09/24 07:28:22;;;;;;;16.62;10.30;;;;;;;13.74;64.88;100082.94;4476179;31;34276;-76
2022/09/24 07:30:59;;;;;;;17.12;11.00;;;;;;;13.81;64.63;100079.75;4493551;31;34024;-76
2022/09/24 07:33:30;;;;;;;17.73;10.60;;;;;;;13.47;65.23;100078.47;4492224;31;32732;-75
2022/09/24 07:35:57;;;;;;;16.52;11.38;;;;;;;13.98;64.05;100076.84;4490853;31;33649;-76
2022/09/24 07:38:25;;;;;;;18.33;10.55;;;;;;;14.21;63.36;100085.47;4491269;31;34016;-77
2022/09/24 07:40:57;;;;;;;15.73;10.70;;;;;;;14.15;63.65;100080.91;4490045;31;33535;-76
2022/09/24 07:43:25;;;;;;;16.83;11.70;;;;;;;14.04;63.96;100085.78;4489789;31;34694;-76
2022/09/24 07:45:54;;;;;;;18.55;10.75;;;;;;;14.49;62.84;100089.91;4485279;31;34691;-76
2022/09/24 07:48:22;;;;;;;21.48;11.82;;;;;;;14.19;65.52;100082.78;4492879;31;34836;-76
2022/09/24 07:50:50;;;;;;;19.25;11.68;;;;;;;14.48;64.92;100090.72;4493004;31;33388;-75
2022/09/24 07:53:17;;;;;;;21.02;12.75;;;;;;;14.75;62.58;100090.78;4486599;31;34782;-75
2022/09/24 07:55:45;;;;;;;21.48;12.50;;;;;;;14.93;61.48;100095.69;4491158;31;34100;-76
2022/09/24 07:58:13;;;;;;;18.10;11.40;;;;;;;14.94;61.53;100087.91;4488317;31;33966;-75
2022/09/24 08:00:41;;;;;;;20.65;12.57;;;;;;;14.92;61.41;100089.59;4489581;31;34152;-75
2022/09/24 08:03:09;;;;;;;19.95;12.23;;;;;;;14.98;61.39;100088.03;4475273;31;33961;-76
2022/09/24 08:05:44;;;;;;;21.70;12.10;;;;;;;15.47;58.96;100079.97;4485821;31;33642;-76
2022/09/24 08:08:13;;;;;;;19.15;11.95;;;;;;;15.65;59.08;100094.41;4486760;31;33856;-78
2022/09/24 08:10:41;;;;;;;21.23;12.00;;;;;;;15.78;58.54;100083.50;4479361;31;33429;-75
2022/09/24 08:13:09;;;;;;;18.73;11.85;;;;;;;15.97;57.88;100076.16;4491104;31;34120;-76
2022/09/24 08:15:37;;;;;;;18.17;11.50;;;;;;;15.78;58.28;100080.91;4493294;31;34614;-76
2022/09/24 08:18:05;;;;;;;20.27;11.98;;;;;;;15.85;58.39;100076.72;4473522;32;34668;-75
2022/09/24 08:20:33;;;;;;;20.42;11.30;;;;;;;16.15;57.44;100061.00;4490766;31;33436;-76
2022/09/24 08:23:01;;;;;;;18.65;11.95;;;;;;;16.24;57.04;100071.66;4472132;31;33313;-77
2022/09/24 08:25:30;;;;;;;17.92;10.27;;;;;;;16.20;56.07;100066.34;4492006;31;33896;-76
2022/09/24 08:28:04;;;;;;;17.30;10.90;;;;;;;16.67;53.98;100077.13;4489026;31;33725;-77
2022/09/24 08:30:33;;;;;;;21.33;10.57;;;;;;;16.82;53.85;100072.25;4487078;31;33372;-77
2022/09/24 08:33:01;;;;;;;17.48;10.23;;;;;;;16.81;53.75;100064.37;4487340;31;34468;-75
2022/09/24 08:35:28;;;;;;;18.70;10.18;;;;;;;17.32;52.42;100041.97;4488913;31;34735;-75
2022/09/24 08:37:59;;;;;;;17.52;8.90;;;;;;;17.74;51.66;100044.59;4494222;31;33912;-76
2022/09/24 08:40:30;;;;;;;14.90;8.23;;;;;;;17.44;50.65;100035.28;4486856;31;33069;-75
2022/09/24 08:43:09;;;;;;;15.75;9.25;;;;;;;17.99;49.37;100042.47;4486310;31;34703;-76
2022/09/24 08:48:50;;;;;;;14.13;7.45;;;;;;;18.04;49.88;100043.44;4481899;31;34727;-76
2022/09/24 08:51:20;;;;;;;13.07;7.37;;;;;;;18.21;47.55;100034.13;4474615;31;33930;-75
2022/09/24 08:54:08;;;;;;;10.38;7.40;;;;;;;18.38;47.50;100042.28;4481190;31;33797;-75
2022/09/24 08:56:39;;;;;;;13.68;7.60;;;;;;;18.30;47.95;100037.78;4480749;31;33907;-76
2022/09/24 08:59:21;;;;;;;9.88;6.82;;;;;;;18.31;48.58;100036.91;4477872;31;33548;-76
2022/09/24 09:02:04;;;;;;;13.00;7.60;;;;;;;18.02;47.92;100042.53;4496729;31;32948;-76
2022/09/24 09:04:44;;;;;;;11.75;7.35;;;;;;;18.01;48.42;100059.12;4489441;31;33707;-75
2022/09/24 09:07:13;;;;;;;12.35;7.62;;;;;;;17.75;49.33;100042.84;4493067;31;33722;-75
2022/09/24 09:10:11;;;;;;;11.93;7.30;;;;;;;16.64;50.43;100036.06;4487266;31;34467;-75
2022/09/24 09:12:47;;;;;;;12.93;7.32;;;;;;;18.11;48.90;100034.84;4496392;31;33000;-75
2022/09/24 09:15:19;;;;;;;11.95;7.15;;;;;;;18.67;46.76;100028.78;4481846;31;34885;-75
2022/09/24 09:17:51;;;;;;;13.48;7.53;;;;;;;18.35;47.84;100025.62;4477919;31;33593;-75
2022/09/24 09:20:39;;;;;;;11.70;7.37;;;;;;;18.53;47.98;100030.31;4487531;31;33749;-75
2022/09/24 09:23:21;;;;;;;13.75;8.25;;;;;;;18.32;47.85;100020.34;4488095;31;33065;-77
2022/09/24 09:25:57;;;;;;;13.20;8.48;;;;;;;18.36;49.07;100025.66;4482153;31;34047;-75
2022/09/24 09:28:26;;;;;;;13.52;8.25;;;;;;;18.92;48.07;100022.19;4488965;31;33961;-76
2022/09/24 09:30:59;;;;;;;204.15;20.65;;;;;;;19.33;47.92;100021.84;4492587;31;32478;-77
2022/09/24 09:33:29;;;;;;;12.75;8.00;;;;;;;19.48;47.01;100015.03;4477616;32;34148;-76
2022/09/24 09:36:09;;;;;;;10.73;7.00;;;;;;;19.18;45.12;100011.16;4491164;31;34090;-78
2022/09/24 09:38:45;;;;;;;14.25;7.55;;;;;;;19.63;46.00;100012.59;4493690;31;33616;-77
2022/09/24 09:41:19;;;;;;;11.18;5.85;;;;;;;20.12;46.28;100010.50;4495322;31;32940;-77
2022/09/24 09:43:46;;;;;;;10.20;6.07;;;;;;;20.13;45.13;100011.41;4488454;31;34388;-77
2022/09/24 09:46:23;;;;;;;10.00;6.32;;;;;;;19.64;45.50;100006.47;4489596;31;34564;-78
2022/09/24 09:49:11;;;;;;;9.52;5.37;;;;;;;19.83;44.78;100008.44;4484526;31;33804;-77
2022/09/24 09:51:41;;;;;;;11.25;5.85;;;;;;;20.10;43.33;100006.97;4481018;32;33851;-77
2022/09/24 09:54:08;;;;;;;8.30;4.78;;;;;;;19.96;45.89;100000.72;4474873;31;33275;-77
2022/09/24 09:56:42;;;;;;;6.70;4.30;;;;;;;19.79;44.46;100003.16;4490861;31;33039;-77
2022/09/24 09:59:10;;;;;;;8.70;4.57;;;;;;;20.19;44.16;100007.06;4490376;31;33907;-77
2022/09/24 10:01:42;;;;;;;8.20;4.10;;;;;;;19.38;45.99;100007.03;4491706;31;33607;-77
2022/09/24 10:04:34;;;;;;;7.80;4.30;;;;;;;19.92;44.69;100001.53;4491525;31;33415;-77
2022/09/24 10:07:07;;;;;;;8.25;4.50;;;;;;;20.04;45.43;100001.66;4488036;31;33836;-77
2022/09/24 10:09:35;;;;;;;8.93;4.57;;;;;;;19.98;44.84;99996.34;4485150;31;34098;-77
2022/09/24 10:12:21;;;;;;;12.45;5.55;;;;;;;20.08;44.72;100000.81;4482313;31;33545;-78
2022/09/24 10:15:00;;;;;;;6.37;4.10;;;;;;;19.43;46.66;99992.22;4484414;31;33557;-77
2022/09/24 10:17:36;;;;;;;7.60;4.07;;;;;;;20.01;45.05;99992.00;4485112;31;33473;-77
2022/09/24 10:20:14;;;;;;;7.62;4.28;;;;;;;20.28;44.33;99984.31;4492272;31;33690;-77
2022/09/24 10:23:07;;;;;;;8.25;3.85;;;;;;;20.01;43.74;99985.84;4477650;31;33879;-76
2022/09/24 10:25:35;;;;;;;10.75;3.42;;;;;;;19.72;44.70;99986.47;4489214;31;33658;-78
2022/09/24 10:30:58;;;;;;;5.30;2.95;;;;;;;20.17;43.62;99973.72;4480635;31;33834;-78
2022/09/24 10:33:26;;;;;;;6.95;3.10;;;;;;;20.53;42.95;99965.25;4480166;31;33684;-79
2022/09/24 10:36:06;;;;;;;5.15;2.30;;;;;;;20.88;41.26;99969.87;4489206;31;33460;-78
2022/09/24 10:38:33;;;;;;;4.10;2.08;;;;;;;21.14;40.63;99954.19;4492383;31;33508;-79
2022/09/24 10:41:16;;;;;;;5.55;2.22;;;;;;;21.23;40.20;99948.09;4491138;31;34650;-79
2022/09/24 10:43:51;;;;;;;4.30;2.17;;;;;;;21.09;39.96;99953.28;4490473;31;33849;-78
2022/09/24 10:46:43;;;;;;;4.72;2.25;;;;;;;21.44;39.36;99956.97;4481175;31;33370;-79
2022/09/24 10:49:34;;;;;;;6.65;2.08;;;;;;;20.71;38.00;99953.09;4494403;31;33907;-78
2022/09/24 10:52:40;;;;;;;6.95;2.40;;;;;;;20.47;41.85;99962.53;4461745;31;33732;-77
2022/09/24 10:55:18;;;;;;;5.97;2.17;;;;;;;19.82;41.47;99959.38;4492273;31;33352;-79
2022/09/24 10:58:04;;;;;;;6.00;2.12;;;;;;;20.62;40.38;99949.53;4479263;31;32363;-78
2022/09/24 11:00:37;;;;;;;4.32;2.42;;;;;;;21.33;39.05;99954.28;4491639;31;33486;-76
2022/09/24 11:03:24;;;;;;;4.70;2.28;;;;;;;20.17;39.90;99966.72;4491147;31;34773;-77
2022/09/24 11:05:54;;;;;;;5.87;2.30;;;;;;;18.95;41.14;99961.88;4495876;31;33693;-78
2022/09/24 11:09:03;;;;;;;6.60;2.28;;;;;;;19.62;41.39;99955.63;4491653;31;32468;-77
2022/09/24 11:11:45;;;;;;;5.90;2.12;;;;;;;19.70;40.61;99950.47;4487889;31;33923;-78
2022/09/24 11:14:39;;;;;;;5.72;2.15;;;;;;;19.72;40.19;99944.41;4472007;31;33993;-76
2022/09/24 11:17:34;;;;;;;4.40;2.05;;;;;;;19.84;40.61;99947.13;4473860;31;34866;-76
2022/09/24 11:20:08;;;;;;;4.43;1.95;;;;;;;20.30;40.27;99945.75;4486266;31;33215;-77
2022/09/24 11:23:06;;;;;;;3.30;2.03;;;;;;;20.13;40.38;99943.03;4485878;31;34638;-76
2022/09/24 11:25:41;;;;;;;4.50;2.28;;;;;;;20.34;39.66;99932.66;4495883;31;34739;-77
2022/09/24 11:28:26;;;;;;;5.15;1.87;;;;;;;20.62;38.72;99923.22;4466782;32;32362;-77
2022/09/24 11:31:12;;;;;;;4.22;2.05;;;;;;;21.05;39.59;99911.13;4476457;31;33606;-77
2022/09/24 11:33:58;;;;;;;3.35;1.70;;;;;;;20.96;39.33;99923.41;4493699;31;34706;-78
2022/09/24 11:36:55;;;;;;;3.87;1.90;;;;;;;19.98;40.22;99927.97;4489396;31;33761;-78
2022/09/24 11:39:42;;;;;;;5.65;2.20;;;;;;;20.68;38.32;99913.59;4485904;31;33910;-77
2022/09/24 11:42:20;;;;;;;4.97;2.17;;;;;;;21.00;38.54;99909.37;4486947;31;33498;-76
2022/09/24 11:45:16;;;;;;;4.85;1.85;;;;;;;20.95;38.60;99916.34;4474169;31;34633;-77
2022/09/24 11:47:53;;;;;;;4.30;1.92;;;;;;;21.32;38.42;99905.06;4485586;31;33935;-77
2022/09/24 11:50:44;;;;;;;5.28;1.80;;;;;;;21.26;37.19;99911.19;4488257;31;33686;-76
2022/09/24 11:53:25;;;;;;;4.32;1.70;;;;;;;21.01;38.75;99905.88;4485816;31;33968;-77
2022/09/24 11:56:31;;;;;;;4.03;2.03;;;;;;;21.69;37.41;99911.34;4464274;31;34400;-77
2022/09/24 11:59:19;;;;;;;5.53;2.00;;;;;;;21.07;37.78;99901.47;4480998;31;33618;-77
2022/09/24 12:01:51;;;;;;;5.15;2.08;;;;;;;21.18;37.81;99908.53;4490575;31;34594;-77
2022/09/24 12:04:56;;;;;;;4.97;2.25;;;;;;;21.39;37.33;99891.91;4481138;31;32907;-76
2022/09/24 12:07:52;;;;;;;4.97;2.20;;;;;;;21.47;38.78;99888.47;4490961;31;34646;-76